LEIB/IBZ METAR and TAF weather

Enter ICAO airport designator
Station Type Date Time Source
LEIB METAR 2021/07/29 03:30 UTC NOAA

LEIB 290330Z 34001KT CAVOK 22/20 Q1014 NOSIG


Station Type Date Time Source
LEIB Decoded METAR 2021/07/29 03:30 UTC NOAA

Ibiza / Es Codola, Spain (LEIB) 38-52N 001-23E 12M
Jul 28, 2021 - 11:30 PM EDT / 2021.07.29 0330 UTC
Wind: from the NNW (340 degrees) at 1 MPH (1 KT):0
Visibility: greater than 7 mile(s):0
Temperature: 71 F (22 C)
Dew Point: 68 F (20 C)
Relative Humidity: 88%
Pressure (altimeter): 29.94 in. Hg (1014 hPa)
ob: LEIB 290330Z 34001KT CAVOK 22/20 Q1014 NOSIG
cycle: 3

Station Type Date Time Source
LEIB TAF 2021/07/29 03:30 UTC NOAA

TAF LEIB 290200Z 2903/3003 02005KT 9999 FEW020 TX29/2912Z TN21/2905Z
BECMG 2906/2908 09010KT

Example: see airport list